Ronks, PA

2:32 AM EDT on September 22, 2014 (GMT -0400)
Harrisburg International | Change Station
CLOSE
Current Station
Airport
Location: Middletown,
Elevation: 312 ft
Nearby Weather Stations

Elev 312 ft 40.19 °N, 76.76 °W | Updated 36 minutes ago

Clear
Clear
66 °F
Feels Like 66 °F
N
16
Wind Variable Wind from WNW
Gusts 24 mph

Today
High -- | Low -- °F
--% Chance of Precip.
Yesterday
High -- | Low -- °F
Precip. -- in
6:52 AM 7:01 PM
Waning Crescent, 4% visible
Pressure 29.75 in
Visibility 10.0 miles
Clouds Few 3500 ft
Few 6000 ft
Dew Point 52 °F
Humidity 60%
Rainfall 0.00 in
Snow Depth Not available.
UV 0 out of 12
Pollen 3.50 out of 12
Ozone Good
PM2.5 Moderate
Flu Activity Not available.
METAR KMDT 220556Z 30014G21KT 10SM FEW035 FEW060 19/11 A2975 RMK AO2 SLP073 60019 T01890111 10222 20183 51019 $

More Conditions Fewer Conditions

Pressure 29.75 in
Visibility 10.0 miles
Clouds Few 3500 ft
Few 6000 ft
Dew Point 52 °F
Humidity 60%
Rainfall 0.00 in
Snow Depth Not available.
UV 0 out of 12
Pollen 3.50 out of 12
Ozone Good
PM2.5 Moderate
Flu Activity Not available.
METAR KMDT 220556Z 30014G21KT 10SM FEW035 FEW060 19/11 A2975 RMK AO2 SLP073 60019 T01890111 10222 20183 51019 $

More Conditions Fewer Conditions

10-Day Weather Forecast

Almanac

Astronomy

Sep. 22, 2014 Rise Set
Actual Time 6:52 AM EDT 7:01 PM EDT
Civil Twilight 6:25 AM EDT 7:28 PM EDT
Nautical Twilight 5:53 AM EDT 8:00 PM EDT
Astronomical Twilight 5:21 AM EDT 8:32 PM EDT
Moon 5:18 AM EDT 6:08 PM EDT
Length of Visible Light 13h 03m
Length of Day
12h 09m
Tomorrow will be 2m 37s shorter.
Waning Crescent, 4% of the Moon is Illuminated
Today
Waning Crescent
Sep 24
New
Oct 1
First Quarter
Oct 8
Full
Oct 15
Last Quarter

Today's Extremes

State Highs State Lows

Community

WunderPhotos

Upload Photos

1,755,392 photos uploaded!

Nearby

Air Quality

  Air Quality AQ Index Pollutant
Yesterday Moderate
PM2.5
Yesterday Good
OZONE
Current Moderate
PM2.5
Current Good
OZONE
Monday Good
PM2.5
Tuesday Good
PM2.5

Snow Depth

Station Depth Elevation
No new snow has been reported.

Earthquake Activity

City Distance Mag. Time & Date
No recent earthquake activity has been reported nearby.
Minimum magnitude displayed is 2.5.

Coastal Water Temperatures

Place Temperature
No Stations Reporting

Nearby Weather Stations